Time;durP1;ratioP1;P1;durP2;ratioP2;P2;SDS_P1;SDS_P2;PMS_P1;PMS_P2;Temp;Humidity;BMP_temperature;BMP_pressure;BME280_temperature;BME280_humidity;BME280_pressure;Samples;Min_cycle;Max_cycle;Signal;HPM_P1;HPM_P2
2022/10/13 00:01:01;;;;;;;;;;;;;;;8.63;78.13;100592.00;6150491;23;1091;-79
2022/10/13 00:03:27;;;;;;;;;;;;;;;8.65;77.96;100586.44;6149888;23;1311;-76
2022/10/13 00:05:54;;;;;;;;;;;;;;;8.66;77.80;100589.94;6150250;23;1897;-77
2022/10/13 00:08:21;;;;;;;;;;;;;;;8.66;77.72;100585.41;6122858;23;944;-76
2022/10/13 00:10:47;;;;;;;;;;;;;;;8.67;77.85;100589.72;6149990;23;967;-76
2022/10/13 00:13:14;;;;;;;;;;;;;;;8.66;77.89;100584.59;6122825;23;1228;-77
2022/10/13 00:15:40;;;;;;;;;;;;;;;8.67;78.25;100589.72;6120651;23;1148;-76
2022/10/13 00:18:07;;;;;;;;;;;;;;;8.67;78.04;100592.41;6146732;23;963;-77
2022/10/13 00:20:33;;;;;;;;;;;;;;;8.68;78.25;100598.59;6124510;23;983;-76
2022/10/13 00:23:00;;;;;;;;;;;;;;;8.68;78.07;100590.56;6150290;23;939;-76
2022/10/13 00:25:26;;;;;;;;;;;;;;;8.68;78.19;100585.19;6150240;23;1960;-76
2022/10/13 00:27:53;;;;;;;;;;;;;;;8.68;78.16;100586.03;6124894;23;1217;-77
2022/10/13 00:30:19;;;;;;;;;;;;;;;8.68;78.03;100579.81;6149508;23;955;-77
2022/10/13 00:32:46;;;;;;;;;;;;;;;8.69;78.27;100581.47;6150756;23;935;-76
2022/10/13 00:35:12;;;;;;;;;;;;;;;8.69;78.34;100578.81;6149912;23;990;-75
2022/10/13 00:37:39;;;;;;;;;;;;;;;8.69;78.17;100576.94;6126641;23;1245;-76
2022/10/13 00:40:06;;;;;;;;;;;;;;;8.69;78.04;100566.19;6154341;23;994;-75
2022/10/13 00:42:32;;;;;;;;;;;;;;;8.69;78.18;100570.75;6153448;23;862;-76
2022/10/13 00:44:59;;;;;;;;;;;;;;;8.69;78.03;100568.88;6152831;23;843;-76
2022/10/13 00:47:25;;;;;;;;;;;;;;;8.70;78.31;100567.00;6125418;23;1955;-78
2022/10/13 00:49:52;;;;;;;;;;;;;;;8.70;78.09;100569.69;6127934;23;1227;-76
2022/10/13 00:52:18;;;;;;;;;;;;;;;8.70;78.00;100575.06;6153089;23;882;-77
2022/10/13 00:54:45;;;;;;;;;;;;;;;8.71;78.27;100569.50;6127060;23;892;-76
2022/10/13 00:57:12;;;;;;;;;;;;;;;8.71;77.92;100569.50;6154373;23;828;-75
2022/10/13 00:59:38;;;;;;;;;;;;;;;8.70;78.10;100558.97;6153366;23;1082;-78
2022/10/13 01:02:05;;;;;;;;;;;;;;;8.71;78.04;100552.56;6153387;23;1299;-77
2022/10/13 01:04:31;;;;;;;;;;;;;;;8.71;78.17;100556.09;6153318;23;855;-79
2022/10/13 01:06:58;;;;;;;;;;;;;;;8.72;78.16;100551.53;6152225;23;1940;-76
2022/10/13 01:09:24;;;;;;;;;;;;;;;8.71;77.83;100553.41;6153563;23;956;-76
2022/10/13 01:11:51;;;;;;;;;;;;;;;8.71;78.09;100542.66;6128226;23;1235;-78
2022/10/13 01:14:18;;;;;;;;;;;;;;;8.72;78.07;100544.28;6152221;23;847;-76
2022/10/13 01:16:44;;;;;;;;;;;;;;;8.72;78.23;100544.28;6126087;23;1159;-76
2022/10/13 01:19:10;;;;;;;;;;;;;;;8.73;78.39;100539.75;6126356;23;817;-77
2022/10/13 01:21:37;;;;;;;;;;;;;;;8.73;78.25;100539.75;6152298;23;824;-77
2022/10/13 01:24:03;;;;;;;;;;;;;;;8.72;78.14;100538.09;6126872;23;887;-77
2022/10/13 01:26:30;;;;;;;;;;;;;;;8.72;78.23;100536.25;6155898;23;1897;-77
2022/10/13 01:28:57;;;;;;;;;;;;;;;8.73;78.24;100537.06;6152422;23;943;-76
2022/10/13 01:31:23;;;;;;;;;;;;;;;8.73;78.09;100519.09;6154536;23;808;-75
2022/10/13 01:33:50;;;;;;;;;;;;;;;8.74;78.11;100528.00;6155149;23;871;-74
2022/10/13 01:36:16;;;;;;;;;;;;;;;8.74;78.39;100528.00;6153897;23;966;-74
2022/10/13 01:38:43;;;;;;;;;;;;;;;8.73;78.31;100535.19;6151862;23;848;-74
2022/10/13 01:41:09;;;;;;;;;;;;;;;8.73;78.30;100523.63;6153283;23;859;-74
2022/10/13 01:43:37;;;;;;;;;;;;;;;8.74;78.39;100520.75;6153284;23;955;-75
2022/10/13 01:46:03;;;;;;;;;;;;;;;8.74;78.29;100526.13;6152396;23;1901;-76
2022/10/13 01:48:30;;;;;;;;;;;;;;;8.74;78.20;100530.69;6153941;23;848;-73
2022/10/13 01:50:56;;;;;;;;;;;;;;;8.74;78.18;100510.03;6153471;23;925;-74
2022/10/13 01:53:23;;;;;;;;;;;;;;;8.74;78.34;100511.88;6152887;23;812;-74
2022/10/13 01:55:50;;;;;;;;;;;;;;;8.75;78.27;100505.47;6152774;23;801;-74
2022/10/13 01:58:17;;;;;;;;;;;;;;;8.75;78.10;100517.03;6153357;23;897;-74
2022/10/13 02:00:43;;;;;;;;;;;;;;;8.75;77.99;100508.97;6152960;23;1084;-74
2022/10/13 02:03:10;;;;;;;;;;;;;;;8.75;78.19;100514.34;6125434;23;1233;-74
2022/10/13 02:05:36;;;;;;;;;;;;;;;8.75;78.29;100503.59;6146422;23;1925;-74
2022/10/13 02:08:03;;;;;;;;;;;;;;;8.76;78.22;100504.41;6142254;23;855;-75
2022/10/13 02:10:30;;;;;;;;;;;;;;;8.75;78.32;100498.22;6116193;23;915;-75
2022/10/13 02:12:56;;;;;;;;;;;;;;;8.76;78.35;100501.75;6149770;23;840;-74
2022/10/13 02:15:23;;;;;;;;;;;;;;;8.76;78.29;100491.00;6152437;23;817;-74
2022/10/13 02:17:49;;;;;;;;;;;;;;;8.75;78.51;100487.50;6152257;23;852;-76
2022/10/13 02:20:16;;;;;;;;;;;;;;;8.76;78.36;100486.44;6153304;23;945;-74
2022/10/13 02:22:42;;;;;;;;;;;;;;;8.77;78.57;100487.28;6126433;23;836;-74
2022/10/13 02:25:09;;;;;;;;;;;;;;;8.77;78.31;100476.56;6151172;23;896;-74
2022/10/13 02:27:36;;;;;;;;;;;;;;;8.76;78.13;100477.56;6152679;23;1940;-74
2022/10/13 02:30:02;;;;;;;;;;;;;;;8.77;78.13;100473.88;6127369;23;828;-74
2022/10/13 02:32:29;;;;;;;;;;;;;;;8.76;78.41;100486.44;6126289;23;1185;-75
2022/10/13 02:34:55;;;;;;;;;;;;;;;8.77;78.36;100485.44;6150162;23;800;-75
2022/10/13 02:37:24;;;;;;;;;;;;;;;8.78;78.26;100481.69;6145136;23;812;-75
2022/10/13 02:39:50;;;;;;;;;;;;;;;8.79;78.37;100482.53;6142005;23;887;-77
2022/10/13 02:42:17;;;;;;;;;;;;;;;8.78;78.26;100479.00;6142051;23;808;-73
2022/10/13 02:44:43;;;;;;;;;;;;;;;8.79;78.30;100483.34;6142677;23;763;-74
2022/10/13 02:47:10;;;;;;;;;;;;;;;8.78;78.29;100479.00;6114202;23;1897;-75
2022/10/13 02:49:36;;;;;;;;;;;;;;;8.80;78.23;100481.50;6141516;23;816;-77
2022/10/13 02:52:03;;;;;;;;;;;;;;;8.79;78.29;100469.09;6115335;23;1283;-74
2022/10/13 02:54:29;;;;;;;;;;;;;;;8.79;78.46;100472.59;6114618;23;1399;-74
2022/10/13 02:56:56;;;;;;;;;;;;;;;8.80;78.33;100470.75;6115303;23;1181;-75
2022/10/13 02:59:22;;;;;;;;;;;;;;;8.80;78.36;100470.75;6142661;23;1030;-75
2022/10/13 03:01:49;;;;;;;;;;;;;;;8.80;78.43;100468.06;6141350;23;1331;-74
2022/10/13 03:04:15;;;;;;;;;;;;;;;8.79;78.37;100463.72;6142822;23;816;-74
2022/10/13 03:06:42;;;;;;;;;;;;;;;8.80;78.20;100462.72;6145031;23;1953;-76
2022/10/13 03:09:09;;;;;;;;;;;;;;;8.80;78.27;100457.34;6143312;23;757;-76
2022/10/13 03:11:35;;;;;;;;;;;;;;;8.80;78.62;100457.34;6122664;23;1813;-75
2022/10/13 03:14:03;;;;;;;;;;;;;;;8.81;78.48;100448.22;6120370;23;1146;-76
2022/10/13 03:16:29;;;;;;;;;;;;;;;8.80;78.63;100455.47;6115536;23;825;-76
2022/10/13 03:18:56;;;;;;;;;;;;;;;8.81;78.33;100454.41;6142881;23;832;-75
2022/10/13 03:21:22;;;;;;;;;;;;;;;8.81;78.50;100448.22;6117909;23;836;-75
2022/10/13 03:23:49;;;;;;;;;;;;;;;8.80;78.40;100450.09;6141491;23;812;-75
2022/10/13 03:26:16;;;;;;;;;;;;;;;8.80;78.60;100438.53;6141489;23;1901;-75
2022/10/13 03:28:42;;;;;;;;;;;;;;;8.81;78.49;100435.63;6143482;23;785;-75
2022/10/13 03:31:09;;;;;;;;;;;;;;;8.82;78.71;100444.50;6120881;23;1396;-75
2022/10/13 03:33:35;;;;;;;;;;;;;;;8.81;78.55;100438.31;6116592;23;860;-75
2022/10/13 03:36:02;;;;;;;;;;;;;;;8.82;78.70;100439.13;6141169;23;812;-76
2022/10/13 03:38:28;;;;;;;;;;;;;;;8.82;78.46;100439.13;6141666;23;828;-75
2022/10/13 03:40:55;;;;;;;;;;;;;;;8.82;78.34;100426.56;6142261;23;800;-76
2022/10/13 03:43:21;;;;;;;;;;;;;;;8.82;78.37;100423.00;6115154;23;820;-74
2022/10/13 03:45:48;;;;;;;;;;;;;;;8.82;78.64;100418.50;6144073;23;848;-75
2022/10/13 03:48:14;;;;;;;;;;;;;;;8.82;78.55;100423.88;6118277;23;1909;-75
2022/10/13 03:50:41;;;;;;;;;;;;;;;8.83;78.58;100419.31;6119604;23;848;-74
2022/10/13 03:53:08;;;;;;;;;;;;;;;8.84;78.41;100429.00;6143142;23;804;-74
2022/10/13 03:55:34;;;;;;;;;;;;;;;8.84;78.57;100420.94;6143278;23;757;-73
2022/10/13 03:58:01;;;;;;;;;;;;;;;8.83;78.35;100424.69;6144749;23;820;-73
2022/10/13 04:00:27;;;;;;;;;;;;;;;8.83;78.42;100412.06;6144387;23;1217;-77
2022/10/13 04:02:54;;;;;;;;;;;;;;;8.84;78.37;100419.09;6146016;23;1238;-74
2022/10/13 04:05:20;;;;;;;;;;;;;;;8.84;78.17;100416.41;6145251;23;829;-75
2022/10/13 04:07:47;;;;;;;;;;;;;;;8.84;78.51;100411.03;6142842;23;1901;-75
2022/10/13 04:10:13;;;;;;;;;;;;;;;8.85;78.41;100411.84;6142949;23;856;-77
2022/10/13 04:12:40;;;;;;;;;;;;;;;8.85;78.54;100417.22;6152235;23;1372;-74
2022/10/13 04:15:07;;;;;;;;;;;;;;;8.86;78.45;100408.16;6153735;23;792;-74
2022/10/13 04:17:33;;;;;;;;;;;;;;;8.85;78.42;100406.47;6155188;23;788;-74
2022/10/13 04:20:00;;;;;;;;;;;;;;;8.85;78.45;100410.00;6153437;23;1550;-75
2022/10/13 04:22:26;;;;;;;;;;;;;;;8.86;78.21;100397.41;6154321;23;971;-76
2022/10/13 04:24:53;;;;;;;;;;;;;;;8.87;78.34;100399.03;6125871;23;986;-75
2022/10/13 04:27:22;;;;;;;;;;;;;;;8.86;78.44;100392.84;6153952;23;1900;-75
2022/10/13 04:29:48;;;;;;;;;;;;;;;8.86;78.16;100392.03;6153812;23;994;-74
2022/10/13 04:32:15;;;;;;;;;;;;;;;8.87;78.40;100393.66;6155238;23;828;-73
2022/10/13 04:34:41;;;;;;;;;;;;;;;8.87;78.33;100388.31;6153967;23;947;-74
2022/10/13 04:37:08;;;;;;;;;;;;;;;8.87;78.31;100393.66;6154021;23;887;-73
2022/10/13 04:39:34;;;;;;;;;;;;;;;8.88;78.20;100389.94;6153973;23;1046;-74
2022/10/13 04:42:01;;;;;;;;;;;;;;;8.87;78.28;100386.44;6125387;23;1292;-74
2022/10/13 04:44:27;;;;;;;;;;;;;;;8.87;78.33;100383.75;6142442;23;946;-75
2022/10/13 04:46:54;;;;;;;;;;;;;;;8.90;78.11;100392.44;6116613;23;1944;-74
2022/10/13 04:49:21;;;;;;;;;;;;;;;8.89;77.99;100390.78;6143964;23;1053;-75
2022/10/13 04:51:47;;;;;;;;;;;;;;;8.89;78.29;100396.16;6143183;23;974;-75
2022/10/13 04:54:14;;;;;;;;;;;;;;;8.91;78.23;100396.75;6143505;23;967;-75
2022/10/13 04:56:40;;;;;;;;;;;;;;;8.91;78.50;100383.31;6116530;23;1149;-74
2022/10/13 04:59:07;;;;;;;;;;;;;;;8.89;77.90;100386.25;6144322;23;804;-75
2022/10/13 05:01:34;;;;;;;;;;;;;;;8.90;78.27;100390.56;6143494;23;963;-74
2022/10/13 05:04:01;;;;;;;;;;;;;;;8.90;78.21;100385.19;6117900;23;1015;-75
2022/10/13 05:06:27;;;;;;;;;;;;;;;8.91;78.28;100386.00;6143371;23;1972;-75
2022/10/13 05:08:54;;;;;;;;;;;;;;;8.91;78.42;100391.38;6143595;23;998;-74
2022/10/13 05:11:21;;;;;;;;;;;;;;;8.91;78.31;100383.31;6145899;23;1541;-75
2022/10/13 05:13:47;;;;;;;;;;;;;;;8.91;78.14;100381.47;6150826;23;800;-75
2022/10/13 05:16:14;;;;;;;;;;;;;;;8.91;78.42;100377.94;6148480;23;1021;-75
2022/10/13 05:18:40;;;;;;;;;;;;;;;8.92;78.35;100383.13;6147821;23;1266;-75
2022/10/13 05:21:07;;;;;;;;;;;;;;;8.91;78.09;100378.78;6146102;23;954;-75
2022/10/13 05:23:34;;;;;;;;;;;;;;;8.92;78.17;100380.44;6116627;23;1215;-75
2022/10/13 05:26:00;;;;;;;;;;;;;;;8.91;78.45;100372.56;6143162;23;958;-74
2022/10/13 05:28:27;;;;;;;;;;;;;;;8.91;78.33;100362.66;6144912;23;1937;-75
2022/10/13 05:30:53;;;;;;;;;;;;;;;8.93;78.51;100367.81;6122719;23;1161;-75
2022/10/13 05:33:20;;;;;;;;;;;;;;;8.92;78.42;100360.81;6147731;23;987;-75
2022/10/13 05:35:46;;;;;;;;;;;;;;;8.92;78.62;100360.81;6149219;23;939;-75
2022/10/13 05:38:13;;;;;;;;;;;;;;;8.93;78.38;100367.81;6123094;23;959;-75
2022/10/13 05:40:39;;;;;;;;;;;;;;;8.92;78.35;100358.94;6146012;23;983;-75
2022/10/13 05:43:06;;;;;;;;;;;;;;;8.93;78.61;100368.66;6144665;23;1007;-74
2022/10/13 05:45:32;;;;;;;;;;;;;;;8.92;78.80;100353.56;6118051;23;1148;-75
2022/10/13 05:47:59;;;;;;;;;;;;;;;8.92;78.57;100345.53;6144839;23;1927;-75
2022/10/13 05:50:25;;;;;;;;;;;;;;;8.92;78.53;100353.56;6149411;23;1028;-75
2022/10/13 05:52:52;;;;;;;;;;;;;;;8.92;78.69;100350.06;6118286;23;1161;-74
2022/10/13 05:55:19;;;;;;;;;;;;;;;8.93;78.80;100346.34;6146122;23;916;-75
2022/10/13 05:57:45;;;;;;;;;;;;;;;8.93;78.54;100347.16;6143721;23;967;-75
2022/10/13 06:00:12;;;;;;;;;;;;;;;8.93;78.49;100360.59;6145759;23;1041;-74
2022/10/13 06:02:38;;;;;;;;;;;;;;;8.94;78.55;100351.50;6149219;23;919;-74
2022/10/13 06:05:05;;;;;;;;;;;;;;;8.93;78.44;100343.66;6120861;23;1423;-77
2022/10/13 06:07:31;;;;;;;;;;;;;;;8.93;78.52;100339.09;6120627;23;1948;-76
2022/10/13 06:09:58;;;;;;;;;;;;;;;8.94;78.40;100337.22;6154113;23;947;-74
2022/10/13 06:12:24;;;;;;;;;;;;;;;8.93;78.34;100341.78;6128540;23;1161;-74
2022/10/13 06:14:51;;;;;;;;;;;;;;;8.95;78.53;100339.72;6156612;23;830;-74
2022/10/13 06:17:17;;;;;;;;;;;;;;;8.93;78.40;100339.09;6156675;23;1006;-72
2022/10/13 06:19:44;;;;;;;;;;;;;;;8.95;78.59;100338.91;6156414;23;1266;-74
2022/10/13 06:22:11;;;;;;;;;;;;;;;8.94;78.44;100339.91;6153581;23;1010;-74
2022/10/13 06:24:37;;;;;;;;;;;;;;;8.94;78.55;100340.78;6144968;23;1025;-74
2022/10/13 06:27:04;;;;;;;;;;;;;;;8.94;78.58;100348.81;6119422;23;1901;-76
2022/10/13 06:29:32;;;;;;;;;;;;;;;8.94;78.35;100335.41;6145322;23;966;-74
2022/10/13 06:31:58;;;;;;;;;;;;;;;8.95;78.63;100330.84;6123152;23;943;-73
2022/10/13 06:34:25;;;;;;;;;;;;;;;8.94;78.39;100334.53;6118343;23;994;-74
2022/10/13 06:36:51;;;;;;;;;;;;;;;8.95;78.40;100326.28;6147808;23;970;-74
2022/10/13 06:39:18;;;;;;;;;;;;;;;8.95;78.59;100331.66;6152339;23;954;-73
2022/10/13 06:41:44;;;;;;;;;;;;;;;8.96;78.45;100332.47;6148075;23;971;-76
2022/10/13 06:44:11;;;;;;;;;;;;;;;8.96;78.53;100329.78;6145714;23;971;-73
2022/10/13 06:46:38;;;;;;;;;;;;;;;8.96;78.45;100332.47;6147974;23;784;-77
2022/10/13 06:49:04;;;;;;;;;;;;;;;8.96;78.41;100327.94;6148457;23;1957;-74
2022/10/13 06:51:31;;;;;;;;;;;;;;;8.96;78.40;100335.97;6148290;23;982;-74
2022/10/13 06:53:57;;;;;;;;;;;;;;;8.97;78.10;100326.06;6145733;23;1018;-73
2022/10/13 06:56:24;;;;;;;;;;;;;;;8.96;78.12;100327.94;6146485;23;994;-75
2022/10/13 06:58:50;;;;;;;;;;;;;;;8.97;78.44;100328.75;6121148;23;1160;-76
2022/10/13 07:01:17;;;;;;;;;;;;;;;8.96;78.35;100330.63;6147600;23;859;-75
2022/10/13 07:03:43;;;;;;;;;;;;;;;8.97;78.24;100342.19;6153981;23;971;-74
2022/10/13 07:06:10;;;;;;;;;;;;;;;8.97;78.48;100345.72;6156189;23;986;-74
2022/10/13 07:08:37;;;;;;;;;;;;;;;8.98;78.41;100327.72;6150176;23;1925;-75
2022/10/13 07:11:03;;;;;;;;;;;;;;;8.97;78.22;100342.19;6123911;23;1214;-74
2022/10/13 07:13:30;;;;;;;;;;;;;;;8.98;78.41;100341.16;6153369;23;999;-73
2022/10/13 07:15:56;;;;;;;;;;;;;;;8.98;78.52;100344.66;6150777;23;1018;-74
2022/10/13 07:18:23;;;;;;;;;;;;;;;8.98;78.28;100344.66;6125003;23;1330;-74
2022/10/13 07:20:49;;;;;;;;;;;;;;;8.98;78.29;100339.28;6153720;23;1209;-76
2022/10/13 07:23:16;;;;;;;;;;;;;;;8.99;78.23;100334.75;6156477;23;986;-74
2022/10/13 07:25:42;;;;;;;;;;;;;;;8.99;78.43;100345.47;6155540;23;1046;-74
2022/10/13 07:28:09;;;;;;;;;;;;;;;8.98;78.36;100339.28;6156536;23;1939;-77
2022/10/13 07:30:35;;;;;;;;;;;;;;;8.99;78.38;100345.47;6155233;23;1045;-75
2022/10/13 07:33:02;;;;;;;;;;;;;;;9.00;78.07;100331.00;6155310;23;1041;-74
2022/10/13 07:35:28;;;;;;;;;;;;;;;8.99;78.45;100334.75;6131171;23;1270;-74
2022/10/13 07:37:55;;;;;;;;;;;;;;;8.99;78.26;100335.56;6132114;23;1011;-74
2022/10/13 07:40:21;;;;;;;;;;;;;;;9.00;78.09;100337.22;6158047;23;994;-77
2022/10/13 07:42:48;;;;;;;;;;;;;;;8.99;78.49;100330.19;6158501;23;974;-77
2022/10/13 07:45:14;;;;;;;;;;;;;;;9.00;77.99;100337.22;6131071;23;1283;-77
2022/10/13 07:47:41;;;;;;;;;;;;;;;8.99;77.98;100335.56;6130252;23;1940;-75
2022/10/13 07:50:08;;;;;;;;;;;;;;;9.00;78.45;100339.91;6159131;23;982;-74
2022/10/13 07:52:34;;;;;;;;;;;;;;;9.00;78.50;100336.38;6136027;23;1351;-74
2022/10/13 07:55:01;;;;;;;;;;;;;;;9.00;78.64;100345.28;6132012;23;1156;-74
2022/10/13 07:57:27;;;;;;;;;;;;;;;9.01;78.38;100332.66;6159181;23;916;-74
2022/10/13 07:59:54;;;;;;;;;;;;;;;9.00;78.43;100337.22;6133084;23;1234;-73
2022/10/13 08:02:20;;;;;;;;;;;;;;;9.01;78.45;100332.66;6156311;23;983;-74
2022/10/13 08:04:47;;;;;;;;;;;;;;;9.01;78.43;100327.28;6156881;23;933;-74
2022/10/13 08:07:15;;;;;;;;;;;;;;;9.01;78.51;100333.50;6153680;23;1932;-74
2022/10/13 08:09:41;;;;;;;;;;;;;;;9.01;78.60;100338.03;6158808;23;987;-74
2022/10/13 08:12:08;;;;;;;;;;;;;;;9.01;78.29;100338.84;6157325;23;1027;-73
2022/10/13 08:14:34;;;;;;;;;;;;;;;9.02;78.33;100328.94;6157351;23;1015;-75
2022/10/13 08:17:01;;;;;;;;;;;;;;;9.01;78.13;100333.50;6156818;23;963;-74
2022/10/13 08:19:27;;;;;;;;;;;;;;;9.01;78.42;100324.63;6158548;23;1197;-74
2022/10/13 08:21:54;;;;;;;;;;;;;;;9.03;78.43;100330.56;6157987;23;959;-74
2022/10/13 08:24:21;;;;;;;;;;;;;;;9.01;78.07;100330.81;6157198;23;916;-74
2022/10/13 08:26:47;;;;;;;;;;;;;;;9.02;78.42;100329.75;6158101;23;940;-74
2022/10/13 08:29:14;;;;;;;;;;;;;;;9.02;78.46;100335.13;6154603;23;1897;-75
2022/10/13 08:31:40;;;;;;;;;;;;;;;9.02;78.18;100331.63;6130452;23;932;-73
2022/10/13 08:34:07;;;;;;;;;;;;;;;9.02;78.23;100337.81;6157916;23;1292;-73
2022/10/13 08:36:33;;;;;;;;;;;;;;;9.02;78.46;100340.50;6130518;23;1050;-77
2022/10/13 08:39:00;;;;;;;;;;;;;;;9.03;78.37;100334.09;6131958;23;1022;-77
2022/10/13 08:41:26;;;;;;;;;;;;;;;9.02;78.37;100337.81;6158023;23;998;-74
2022/10/13 08:43:53;;;;;;;;;;;;;;;9.03;78.53;100333.25;6157692;23;1018;-75
2022/10/13 08:46:20;;;;;;;;;;;;;;;9.02;78.59;100340.50;6157804;23;995;-75
2022/10/13 08:48:46;;;;;;;;;;;;;;;9.03;78.32;100335.94;6158158;23;1940;-73
2022/10/13 08:51:13;;;;;;;;;;;;;;;9.03;78.73;100335.94;6157417;23;959;-74
2022/10/13 08:53:39;;;;;;;;;;;;;;;9.04;78.23;100332.25;6130711;23;1255;-75
2022/10/13 08:56:06;;;;;;;;;;;;;;;9.03;78.43;100334.09;6158057;23;971;-73
2022/10/13 08:58:32;;;;;;;;;;;;;;;9.03;78.38;100342.16;6132481;23;955;-74
2022/10/13 09:00:59;;;;;;;;;;;;;;;9.03;78.32;100331.41;6130312;23;1394;-73
2022/10/13 09:03:25;;;;;;;;;;;;;;;9.03;78.63;100336.78;6126323;23;959;-74
2022/10/13 09:05:52;;;;;;;;;;;;;;;9.04;78.57;100337.63;6158075;23;971;-75
2022/10/13 09:08:18;;;;;;;;;;;;;;;9.03;78.37;100328.72;6131094;23;1901;-74
2022/10/13 09:10:45;;;;;;;;;;;;;;;9.04;78.71;100332.25;6158179;23;967;-74
2022/10/13 09:13:11;;;;;;;;;;;;;;;9.04;78.44;100324.19;6155405;23;986;-75
2022/10/13 09:15:38;;;;;;;;;;;;;;;9.04;78.50;100335.75;6157021;23;1128;-74
2022/10/13 09:18:04;;;;;;;;;;;;;;;9.04;78.42;100326.88;6131060;23;1573;-73
2022/10/13 09:20:31;;;;;;;;;;;;;;;9.04;78.50;100326.88;6157733;23;1191;-74
2022/10/13 09:22:58;;;;;;;;;;;;;;;9.04;78.40;100330.38;6154639;23;856;-75
2022/10/13 09:25:24;;;;;;;;;;;;;;;9.05;78.64;100328.50;6129942;23;948;-74
2022/10/13 09:27:51;;;;;;;;;;;;;;;9.04;78.61;100326.88;6156987;23;1928;-74
2022/10/13 09:30:19;;;;;;;;;;;;;;;9.04;78.63;100327.69;6156639;23;948;-74
2022/10/13 09:32:46;;;;;;;;;;;;;;;9.04;78.50;100324.19;6131800;23;983;-74
2022/10/13 09:35:12;;;;;;;;;;;;;;;9.05;78.57;100326.63;6156735;23;975;-74
2022/10/13 09:37:39;;;;;;;;;;;;;;;9.04;78.37;100316.94;6154894;23;963;-75
2022/10/13 09:40:06;;;;;;;;;;;;;;;9.04;78.61;100319.63;6130815;23;1150;-74
2022/10/13 09:42:32;;;;;;;;;;;;;;;9.05;78.79;100315.06;6157722;23;1030;-74
2022/10/13 09:44:59;;;;;;;;;;;;;;;9.04;78.89;100311.56;6157108;23;952;-74
2022/10/13 09:47:25;;;;;;;;;;;;;;;9.04;78.74;100316.94;6155925;23;979;-74
2022/10/13 09:49:52;;;;;;;;;;;;;;;9.03;78.82;100312.63;6131386;23;1939;-74
2022/10/13 09:52:18;;;;;;;;;;;;;;;9.04;78.39;100306.19;6156757;23;1011;-74
2022/10/13 09:54:45;;;;;;;;;;;;;;;9.05;78.50;100301.63;6131043;23;1354;-74
2022/10/13 09:57:12;;;;;;;;;;;;;;;9.05;78.53;100298.94;6156810;23;1023;-75
2022/10/13 09:59:38;;;;;;;;;;;;;;;9.05;78.78;100298.94;6158013;23;968;-74
2022/10/13 10:02:05;;;;;;;;;;;;;;;9.06;78.63;100300.63;6157173;23;971;-73
2022/10/13 10:04:31;;;;;;;;;;;;;;;9.05;78.55;100297.09;6157243;23;979;-74
2022/10/13 10:06:58;;;;;;;;;;;;;;;9.05;78.40;100297.09;6129935;23;1131;-76
2022/10/13 10:09:24;;;;;;;;;;;;;;;9.06;78.53;100306.81;6156634;23;1893;-75
2022/10/13 10:11:51;;;;;;;;;;;;;;;9.06;78.58;100308.69;6157368;23;976;-73
2022/10/13 10:14:17;;;;;;;;;;;;;;;9.06;78.64;100297.94;6157276;23;1002;-73
2022/10/13 10:16:44;;;;;;;;;;;;;;;9.06;78.72;100298.75;6156101;23;972;-74
2022/10/13 10:19:11;;;;;;;;;;;;;;;9.07;78.45;100299.56;6157451;23;1200;-74
2022/10/13 10:21:38;;;;;;;;;;;;;;;9.06;78.69;100308.69;6131901;23;960;-75
2022/10/13 10:24:04;;;;;;;;;;;;;;;9.07;78.66;100307.63;6156917;23;1010;-74
2022/10/13 10:26:31;;;;;;;;;;;;;;;9.06;78.37;100295.25;6157456;23;983;-75
2022/10/13 10:28:57;;;;;;;;;;;;;;;9.06;78.75;100293.38;6155352;23;1893;-76
2022/10/13 10:31:24;;;;;;;;;;;;;;;9.05;78.28;100294.41;6155210;23;1042;-74
2022/10/13 10:33:50;;;;;;;;;;;;;;;9.06;78.40;100289.88;6131051;23;1871;-76
2022/10/13 10:36:17;;;;;;;;;;;;;;;9.07;78.71;100291.50;6156892;23;927;-74
2022/10/13 10:38:43;;;;;;;;;;;;;;;9.06;78.65;100292.56;6129485;23;1244;-74
2022/10/13 10:41:10;;;;;;;;;;;;;;;9.06;78.34;100287.19;6156977;23;983;-74
2022/10/13 10:43:37;;;;;;;;;;;;;;;9.07;78.65;100283.44;6157202;23;983;-74
2022/10/13 10:46:03;;;;;;;;;;;;;;;9.06;78.49;100279.94;6130013;23;992;-73
2022/10/13 10:48:30;;;;;;;;;;;;;;;9.07;78.37;100276.22;6156886;23;1928;-77
2022/10/13 10:50:56;;;;;;;;;;;;;;;9.07;78.48;100280.75;6157048;23;1118;-73
2022/10/13 10:53:23;;;;;;;;;;;;;;;9.07;78.54;100278.06;6156376;23;959;-74
2022/10/13 10:55:49;;;;;;;;;;;;;;;9.07;78.59;100278.06;6130391;23;1015;-74
2022/10/13 10:58:16;;;;;;;;;;;;;;;9.08;78.81;100274.34;6155168;23;1362;-73
2022/10/13 11:00:42;;;;;;;;;;;;;;;9.07;78.77;100270.84;6128786;23;968;-74
2022/10/13 11:03:09;;;;;;;;;;;;;;;9.08;78.67;100266.28;6157043;23;1031;-75
2022/10/13 11:05:35;;;;;;;;;;;;;;;9.07;78.60;100262.78;6156288;23;1023;-74
2022/10/13 11:08:02;;;;;;;;;;;;;;;9.08;78.42;100268.97;6128559;23;1902;-74
2022/10/13 11:10:29;;;;;;;;;;;;;;;9.08;78.29;100263.59;6128583;23;991;-74
2022/10/13 11:12:56;;;;;;;;;;;;;;;9.09;78.29;100257.19;6157576;23;994;-74
2022/10/13 11:15:23;;;;;;;;;;;;;;;9.08;78.22;100260.91;6129091;23;1003;-75
2022/10/13 11:17:49;;;;;;;;;;;;;;;9.08;78.32;100247.47;6123594;23;1234;-76
2022/10/13 11:20:16;;;;;;;;;;;;;;;9.08;78.33;100259.03;6143699;23;1203;-75
2022/10/13 11:22:43;;;;;;;;;;;;;;;9.10;78.63;100248.09;6128627;23;1343;-76
2022/10/13 11:25:09;;;;;;;;;;;;;;;9.08;78.44;100253.66;6151935;23;971;-76
2022/10/13 11:27:36;;;;;;;;;;;;;;;9.08;78.54;100248.28;6152696;23;975;-75
2022/10/13 11:30:02;;;;;;;;;;;;;;;9.10;78.16;100248.09;6150664;23;1897;-74
2022/10/13 11:32:40;;;;;;;;;;;;;;;9.09;78.41;100260.72;6123491;23;1204;-74
2022/10/13 11:35:06;;;;;;;;;;;;;;;9.10;78.52;100240.84;6152518;23;1085;-74
2022/10/13 11:37:33;;;;;;;;;;;;;;;9.10;78.15;100246.22;6127380;23;1144;-74
2022/10/13 11:39:59;;;;;;;;;;;;;;;9.10;78.46;100245.41;6128372;23;988;-75
2022/10/13 11:42:26;;;;;;;;;;;;;;;9.10;78.16;100234.66;6150676;23;1007;-75
2022/10/13 11:44:52;;;;;;;;;;;;;;;9.10;78.45;100234.66;6125031;23;1283;-73
2022/10/13 11:47:19;;;;;;;;;;;;;;;9.10;78.46;100237.34;6151988;23;968;-75
2022/10/13 11:49:45;;;;;;;;;;;;;;;9.10;78.13;100231.97;6151716;23;1901;-76
2022/10/13 11:52:12;;;;;;;;;;;;;;;9.10;78.08;100235.47;6151148;23;1031;-74
2022/10/13 11:54:39;;;;;;;;;;;;;;;9.11;78.29;100233.59;6151630;23;1031;-74
2022/10/13 11:57:05;;;;;;;;;;;;;;;9.11;78.28;100236.28;6149318;23;1303;-74
2022/10/13 11:59:32;;;;;;;;;;;;;;;9.11;78.18;100236.28;6149730;23;1008;-75
2022/10/13 12:01:58;;;;;;;;;;;;;;;9.12;78.22;100221.00;6123853;23;901;-76
2022/10/13 12:04:25;;;;;;;;;;;;;;;9.10;78.09;100216.66;6147834;23;976;-76
2022/10/13 12:06:51;;;;;;;;;;;;;;;9.12;78.41;100221.00;6151498;23;983;-75
2022/10/13 12:09:18;;;;;;;;;;;;;;;9.11;78.33;100214.81;6125562;23;1939;-76
2022/10/13 12:11:44;;;;;;;;;;;;;;;9.12;78.12;100215.63;6152112;23;1031;-75
2022/10/13 12:14:11;;;;;;;;;;;;;;;9.12;78.20;100207.56;6152732;23;1016;-75
2022/10/13 12:16:37;;;;;;;;;;;;;;;9.12;78.21;100212.94;6152171;23;959;-73
2022/10/13 12:19:04;;;;;;;;;;;;;;;9.12;78.14;100204.88;6153367;23;1506;-75
2022/10/13 12:21:30;;;;;;;;;;;;;;;9.13;78.03;100210.03;6151099;23;990;-73
2022/10/13 12:23:57;;;;;;;;;;;;;;;9.13;78.17;100209.22;6151804;23;841;-74
2022/10/13 12:26:24;;;;;;;;;;;;;;;9.13;78.31;100215.41;6152195;23;999;-73
2022/10/13 12:28:51;;;;;;;;;;;;;;;9.14;78.23;100205.47;6153154;23;1947;-77
2022/10/13 12:31:17;;;;;;;;;;;;;;;9.13;78.18;100201.97;6127908;23;1179;-74
2022/10/13 12:33:44;;;;;;;;;;;;;;;9.14;78.07;100197.44;6115931;23;959;-74
2022/10/13 12:36:10;;;;;;;;;;;;;;;9.13;78.03;100196.59;6146154;23;923;-74
2022/10/13 12:38:37;;;;;;;;;;;;;;;9.13;78.23;100193.91;6147966;23;1030;-76
2022/10/13 12:41:03;;;;;;;;;;;;;;;9.13;77.99;100193.91;6147116;23;979;-76
2022/10/13 12:43:30;;;;;;;;;;;;;;;9.14;78.07;100186.69;6143206;23;1376;-75
2022/10/13 12:45:56;;;;;;;;;;;;;;;9.14;78.36;100184.81;6147051;23;948;-77
2022/10/13 12:48:23;;;;;;;;;;;;;;;9.15;78.18;100188.31;6141570;23;979;-75
2022/10/13 12:50:50;;;;;;;;;;;;;;;9.14;78.06;100187.50;6139270;23;1940;-76
2022/10/13 12:53:16;;;;;;;;;;;;;;;9.14;78.23;100179.44;6143558;23;935;-74
2022/10/13 12:55:43;;;;;;;;;;;;;;;9.14;78.11;100184.81;6142107;23;908;-75
2022/10/13 12:58:09;;;;;;;;;;;;;;;9.14;78.19;100171.38;6115206;23;1082;-78